x

Cape Elizabeth- 45nm Nw Of Aberdeen, Wa (46041) Wave Buoy

10:50am - Sat 30th May 2015 All times are PDT. -7 hours from GMT.

  • Sig Wave height 4.6ft
  • Swell Direction
  • Peak Period 7s
  • Average Period 6s
  • Wind
    4mph, 7mph gusts
  • Sea Temp 53°f
  • 空気 Temp 53°f
  • Sea Pressure 1016mb
  • Cape Elizabeth- 45nm Nw Of Aberdeen, Wa
  • Cape Elizabeth- 45nm Nw Of Aberdeen, Wa

More Historic Weather Station data

Upgrade to MSW Pro to gain access to the past 30 days of data for over 8000 Wavebouys and Weather Stations around the globe.

Join Pro

Comparision Forecast

View Surf forecast
   
Sat 05/30 10:50am 4.5ft 7s 6s 4 7 mph 1016mb 53f 53f
9:50am 4.5ft 7s 6s 7 9 mph 1015.9mb 53f 52f
8:50am 5ft 16s 6s 9 11 mph 1015.7mb 53f 52f
7:50am 5ft 7s 6s 11 13 mph 1015.6mb 53f 52f
6:50am 4.5ft 13s 6s 9 13 mph 1015.6mb 53f 52f
5:50am 5ft 16s 6s 11 13 mph 1015.4mb 53f 52f
4:50am 4.5ft 15s 6s 11 16 mph 1015.3mb 53f 52f
3:50am 4.5ft 8s 6s 11 13 mph 1015.5mb 53f 53f
2:50am 5ft 14s 6s 11 16 mph 1015.4mb 53f 53f
1:50am 5ft 16s 6s 11 16 mph 1015.5mb 53f 53f
12:50am 5ft 16s 6s 11 16 mph 1015.4mb 53f 53f
Fri 05/29 11:50pm 5ft 8s 6s 13 18 mph 1015.3mb 54f 53f
10:50pm 5.5ft 13s 6s 16 20 mph 1015.4mb 54f 53f
9:50pm 5ft 8s 6s 16 20 mph 1015.2mb 54f 53f
8:50pm 5.5ft 8s 6s 18 20 mph 1014.8mb 54f 53f
7:50pm 6ft 8s 6s 16 18 mph 1015.2mb 54f 53f
6:50pm 6ft 8s 6s 16 20 mph 1015.6mb 55f 53f
5:50pm 6ft 8s 6s 16 18 mph 1016mb 55f 54f
4:50pm 5.5ft 8s 6s 13 16 mph 1016.4mb 55f 54f
3:50pm 6ft 8s 7s 13 16 mph 1016.6mb 55f 53f
2:50pm 5ft 8s 7s 11 13 mph 1016.7mb 55f 53f
1:50pm 5ft 8s 7s 9 11 mph 1016.9mb 55f 53f
12:50pm 5ft 10s 7s 9 11 mph 1017.1mb 55f 53f
11:50am 5ft 8s 7s 7 9 mph 1017.3mb 55f 53f
10:50am 5ft 8s 7s 7 9 mph 1017.2mb 55f 52f
9:50am 5ft 17s 7s 9 11 mph 1017.1mb 55f 52f
8:50am 5ft 8s 7s 7 9 mph 1017mb 54f 52f
7:50am 6ft 8s 8s 7 9 mph 1017mb 54f 52f
6:50am 5.5ft 8s 8s 4 7 mph 1016.8mb 54f 52f
5:50am 5.5ft 10s 8s 7 9 mph 1016.9mb 54f 50f
4:50am 5ft 7s 7s 4 7 mph 1016.8mb 54f 50f
3:50am 5.5ft 11s 8s 7 11 mph 1016.9mb 54f 50f
2:50am 4.5ft 12s 8s 7 11 mph 1017.1mb 54f 51f
1:50am 4.5ft 15s 8s 4 7 mph 1017.3mb 54f 51f
12:50am 4.5ft 15s 8s 2 4 mph 1017.5mb 54f 51f
Thu 05/28 11:50pm 4.5ft 16s 8s 4 7 mph 1017.5mb 54f 51f
10:50pm 4.5ft 14s 8s 7
mph
1017.4mb 54f 51f
9:50pm 5ft 17s 8s 7 9 mph 1017.3mb 54f 51f
8:50pm 5ft 15s 8s 7 9 mph 1017.2mb 54f 51f
7:50pm 5ft 11s 8s 4 7 mph 1017.4mb 55f 52f
6:50pm 5ft 11s 8s 7 9 mph 1017.7mb 55f 53f
5:50pm 5ft 10s 8s 4 7 mph 1018.1mb 55f 53f
4:50pm 5.5ft 8s 8s 7 11 mph 1018.5mb 55f 53f
3:50pm 6ft 12s 8s 7 11 mph 1018.9mb 55f 53f
2:50pm 6ft 12s 8s 4 7 mph 1018.9mb 55f 53f
1:50pm 6ft 12s 8s 7 9 mph 1019.3mb 55f 52f
12:50pm 5.5ft 12s 8s 4 7 mph 1019.5mb 55f 52f
11:50am 5ft 12s 8s  -  2 mph 1019.5mb 54f 52f
10:50am 5ft 12s 8s 4 7 mph 1019.4mb 54f 51f
9:50am 5.5ft 12s 8s 4 7 mph 1019.6mb 53f 50f
8:50am 5ft 12s 8s 4 7 mph 1019.5mb 53f 49f
7:50am 5ft 11s 8s 2
mph
1019.3mb 54f 49f
6:50am 5.5ft 13s 8s 2 4 mph 1019.1mb 54f 49f
5:50am 6ft 13s 8s 4
mph
1018.8mb 53f 50f
4:50am 5ft 13s 8s 4 7 mph 1018.5mb 53f 50f
3:50am 5.5ft 13s 8s 4 7 mph 1018.4mb 54f 50f
2:50am 6ft 13s 8s 4 7 mph 1018.7mb 54f 50f
1:50am 6.5ft 13s 9s 4 7 mph 1018.6mb 54f 50f
12:50am 5ft 13s 8s 4 7 mph 1018.8mb 54f 51f
Wed 05/27 11:50pm 5ft 13s 9s 4 9 mph 1018.6mb 55f 51f
10:50pm 5ft 14s 9s 4 7 mph 1018.7mb 53f 52f
9:50pm 5ft 14s 9s 7 9 mph 1018.4mb 54f 51f
8:50pm 5ft 13s  -  9 11 mph 1018mb 54f 52f
7:50pm 5ft 13s 8s 7 11 mph 1018mb 54f 52f
6:50pm 5ft 13s 8s 9 11 mph 1018mb 54f 53f
5:50pm 5.5ft 13s 8s 9 11 mph 1018.5mb 54f 53f
4:50pm 6ft 14s 8s 9 11 mph 1018.8mb 54f 53f
3:50pm 5.5ft 12s 8s 7 9 mph 1019.1mb 54f 53f
2:50pm 5.5ft 14s 8s 4 7 mph 1019.2mb 54f 53f
1:50pm 6ft 11s 8s 7 9 mph 1019.6mb 54f 52f
12:50pm 5.5ft 15s 8s 7 9 mph 1019.5mb 54f 52f
11:50am 5.5ft 14s 8s 4 7 mph 1019.4mb 53f 52f
10:50am 5.5ft 12s 8s 2 4 mph 1019.2mb 54f 52f
9:50am 5.5ft 11s 8s 2 7 mph 1019.2mb 54f 51f
8:50am 5ft 11s 8s  -  2 mph 1019mb 54f 51f
7:50am 6ft 15s 8s 2 4 mph 1018.9mb 54f 51f
6:50am 5.5ft 11s 8s 7 11 mph 1018.7mb 53f 51f
5:50am 5ft 15s 8s 7 9 mph 1018.7mb 53f 51f
4:50am 5ft 14s 8s 9 11 mph 1018.5mb 53f 51f
3:50am 5ft 12s 8s 9
mph
1018.4mb 53f 51f
2:50am 5ft 15s 8s 7 9 mph 1018.5mb 54f 50f
1:50am 5ft 12s 8s 7 11 mph 1018.4mb 54f 51f
12:50am 5ft 12s 8s 9 11 mph 1018.4mb 54f 51f
Tue 05/26 11:50pm 4.5ft 13s 7s 7 9 mph 1018.3mb 54f 51f
10:50pm 4.5ft 16s 7s 7 9 mph 1018.2mb 55f 51f
9:50pm 5ft 15s 8s 9
mph
1018.1mb 54f 51f
8:50pm 4.5ft 13s 7s 7 11 mph 1017.7mb 54f 52f
7:50pm 4ft 12s 7s 4 7 mph 1017.5mb 55f 52f